Terminal Aerodrome Forecast
Issued by NWS Spokane, WA

Home | Current Version | Previous Version | Text Only | Print | Product List | Glossary On
Versions: 1 2 3 4 5 6 7 8 9 10 11 12 13 14 15 16 17 18 19 20 21 22 23 24 25 26 27 28 29 30 31
000
FTUS46 KOTX 201139
TAFGEG
TAF
KGEG 201139Z 2012/2112 19006KT P6SM FEW080 FEW110 FEW250
     FM201500 21009KT P6SM SCT120 BKN200
     FM202200 23007G14KT P6SM VCTS BKN090CB BKN200
     FM210300 21006KT P6SM VCSH BKN080 OVC150=

USA.gov is the U.S. government's official web portal to all federal, state and local government web resources and services.